sensor_id;sensor_type;location;lat;lon;timestamp;P1;durP1;ratioP1;P2;durP2;ratioP2
70148;SDS011;57514;52.164;5.282;2022-12-18T00:01:57;47.33;;;17.48;;
70148;SDS011;57514;52.164;5.282;2022-12-18T00:04:26;30.83;;;12.45;;
70148;SDS011;57514;52.164;5.282;2022-12-18T00:06:53;49.00;;;17.58;;
70148;SDS011;57514;52.164;5.282;2022-12-18T00:09:20;32.47;;;13.55;;
70148;SDS011;57514;52.164;5.282;2022-12-18T00:11:50;28.15;;;12.48;;
70148;SDS011;57514;52.164;5.282;2022-12-18T00:14:20;39.03;;;15.82;;
70148;SDS011;57514;52.164;5.282;2022-12-18T00:16:50;47.53;;;17.52;;
70148;SDS011;57514;52.164;5.282;2022-12-18T00:19:17;51.30;;;20.13;;
70148;SDS011;57514;52.164;5.282;2022-12-18T00:21:45;39.45;;;17.02;;
70148;SDS011;57514;52.164;5.282;2022-12-18T00:24:12;43.63;;;17.90;;
70148;SDS011;57514;52.164;5.282;2022-12-18T00:26:39;49.67;;;20.58;;
70148;SDS011;57514;52.164;5.282;2022-12-18T00:29:09;41.30;;;17.17;;
70148;SDS011;57514;52.164;5.282;2022-12-18T00:31:37;43.35;;;15.85;;
70148;SDS011;57514;52.164;5.282;2022-12-18T00:34:04;47.65;;;19.00;;
70148;SDS011;57514;52.164;5.282;2022-12-18T00:36:33;37.42;;;15.43;;
70148;SDS011;57514;52.164;5.282;2022-12-18T00:39:01;43.25;;;14.65;;
70148;SDS011;57514;52.164;5.282;2022-12-18T00:41:28;40.25;;;17.00;;
70148;SDS011;57514;52.164;5.282;2022-12-18T00:44:16;25.35;;;11.10;;
70148;SDS011;57514;52.164;5.282;2022-12-18T00:46:44;31.45;;;13.25;;
70148;SDS011;57514;52.164;5.282;2022-12-18T00:49:16;40.42;;;17.08;;
70148;SDS011;57514;52.164;5.282;2022-12-18T00:51:44;49.67;;;17.75;;
70148;SDS011;57514;52.164;5.282;2022-12-18T00:54:12;52.35;;;19.25;;
70148;SDS011;57514;52.164;5.282;2022-12-18T00:56:40;35.95;;;15.48;;
70148;SDS011;57514;52.164;5.282;2022-12-18T00:59:16;39.15;;;14.90;;
70148;SDS011;57514;52.164;5.282;2022-12-18T01:01:44;47.47;;;18.48;;
70148;SDS011;57514;52.164;5.282;2022-12-18T01:04:12;45.78;;;17.88;;
70148;SDS011;57514;52.164;5.282;2022-12-18T01:06:39;54.55;;;19.20;;
70148;SDS011;57514;52.164;5.282;2022-12-18T01:09:07;49.10;;;19.00;;
70148;SDS011;57514;52.164;5.282;2022-12-18T01:11:35;27.52;;;10.25;;
70148;SDS011;57514;52.164;5.282;2022-12-18T01:14:03;40.97;;;18.10;;
70148;SDS011;57514;52.164;5.282;2022-12-18T01:16:30;25.45;;;11.25;;
70148;SDS011;57514;52.164;5.282;2022-12-18T01:18:58;39.65;;;16.10;;
70148;SDS011;57514;52.164;5.282;2022-12-18T01:21:26;46.47;;;18.02;;
70148;SDS011;57514;52.164;5.282;2022-12-18T01:23:53;47.15;;;15.15;;
70148;SDS011;57514;52.164;5.282;2022-12-18T01:26:22;52.03;;;20.52;;
70148;SDS011;57514;52.164;5.282;2022-12-18T01:28:50;35.80;;;13.30;;
70148;SDS011;57514;52.164;5.282;2022-12-18T01:33:46;52.22;;;19.17;;
70148;SDS011;57514;52.164;5.282;2022-12-18T01:36:17;32.65;;;14.35;;
70148;SDS011;57514;52.164;5.282;2022-12-18T01:38:48;34.13;;;12.88;;
70148;SDS011;57514;52.164;5.282;2022-12-18T01:41:18;49.42;;;19.65;;
70148;SDS011;57514;52.164;5.282;2022-12-18T01:43:53;38.97;;;14.55;;
70148;SDS011;57514;52.164;5.282;2022-12-18T01:46:21;32.15;;;13.75;;
70148;SDS011;57514;52.164;5.282;2022-12-18T01:48:59;49.75;;;17.67;;
70148;SDS011;57514;52.164;5.282;2022-12-18T01:51:27;30.05;;;12.80;;
70148;SDS011;57514;52.164;5.282;2022-12-18T01:53:56;51.80;;;20.05;;
70148;SDS011;57514;52.164;5.282;2022-12-18T01:56:24;48.75;;;18.50;;
70148;SDS011;57514;52.164;5.282;2022-12-18T01:59:02;39.03;;;12.57;;
70148;SDS011;57514;52.164;5.282;2022-12-18T02:01:30;36.20;;;12.68;;
70148;SDS011;57514;52.164;5.282;2022-12-18T02:04:20;27.60;;;8.07;;
70148;SDS011;57514;52.164;5.282;2022-12-18T02:06:50;23.85;;;8.90;;
70148;SDS011;57514;52.164;5.282;2022-12-18T02:09:23;28.52;;;12.70;;
70148;SDS011;57514;52.164;5.282;2022-12-18T02:12:02;51.30;;;19.38;;
70148;SDS011;57514;52.164;5.282;2022-12-18T02:14:38;39.63;;;16.40;;
70148;SDS011;57514;52.164;5.282;2022-12-18T02:17:17;28.52;;;11.93;;
70148;SDS011;57514;52.164;5.282;2022-12-18T02:27:59;46.40;;;18.15;;
70148;SDS011;57514;52.164;5.282;2022-12-18T02:30:29;38.55;;;17.58;;
70148;SDS011;57514;52.164;5.282;2022-12-18T02:32:58;38.42;;;16.15;;
70148;SDS011;57514;52.164;5.282;2022-12-18T02:35:29;41.53;;;18.15;;
70148;SDS011;57514;52.164;5.282;2022-12-18T02:37:58;43.08;;;17.10;;
70148;SDS011;57514;52.164;5.282;2022-12-18T02:40:28;45.20;;;18.38;;
70148;SDS011;57514;52.164;5.282;2022-12-18T02:43:08;46.13;;;17.50;;
70148;SDS011;57514;52.164;5.282;2022-12-18T02:45:36;41.33;;;15.60;;
70148;SDS011;57514;52.164;5.282;2022-12-18T02:48:07;36.38;;;15.15;;
70148;SDS011;57514;52.164;5.282;2022-12-18T02:50:35;32.50;;;12.75;;
70148;SDS011;57514;52.164;5.282;2022-12-18T02:56:23;32.05;;;13.93;;
70148;SDS011;57514;52.164;5.282;2022-12-18T02:58:34;47.15;;;17.95;;
70148;SDS011;57514;52.164;5.282;2022-12-18T03:01:14;33.63;;;14.38;;
70148;SDS011;57514;52.164;5.282;2022-12-18T03:03:54;42.40;;;15.88;;
70148;SDS011;57514;52.164;5.282;2022-12-18T03:06:28;25.95;;;11.90;;
70148;SDS011;57514;52.164;5.282;2022-12-18T03:08:58;32.35;;;13.00;;
70148;SDS011;57514;52.164;5.282;2022-12-18T03:14:16;32.10;;;13.07;;
70148;SDS011;57514;52.164;5.282;2022-12-18T03:16:47;33.80;;;14.23;;
70148;SDS011;57514;52.164;5.282;2022-12-18T03:19:16;41.20;;;14.82;;
70148;SDS011;57514;52.164;5.282;2022-12-18T03:21:49;30.08;;;12.95;;
70148;SDS011;57514;52.164;5.282;2022-12-18T03:24:18;40.60;;;16.33;;
70148;SDS011;57514;52.164;5.282;2022-12-18T03:26:50;40.35;;;16.52;;
70148;SDS011;57514;52.164;5.282;2022-12-18T03:29:25;43.47;;;14.65;;
70148;SDS011;57514;52.164;5.282;2022-12-18T03:31:58;38.03;;;15.82;;
70148;SDS011;57514;52.164;5.282;2022-12-18T03:34:29;36.70;;;16.77;;
70148;SDS011;57514;52.164;5.282;2022-12-18T03:37:04;41.53;;;16.50;;
70148;SDS011;57514;52.164;5.282;2022-12-18T03:39:33;43.63;;;14.85;;
70148;SDS011;57514;52.164;5.282;2022-12-18T03:42:03;36.15;;;16.20;;
70148;SDS011;57514;52.164;5.282;2022-12-18T03:44:40;39.20;;;14.90;;
70148;SDS011;57514;52.164;5.282;2022-12-18T03:50:10;45.78;;;17.65;;
70148;SDS011;57514;52.164;5.282;2022-12-18T03:52:50;37.20;;;14.63;;
70148;SDS011;57514;52.164;5.282;2022-12-18T03:55:19;28.92;;;12.45;;
70148;SDS011;57514;52.164;5.282;2022-12-18T03:57:53;47.10;;;16.48;;
70148;SDS011;57514;52.164;5.282;2022-12-18T04:00:21;42.45;;;16.67;;
70148;SDS011;57514;52.164;5.282;2022-12-18T04:03:00;41.65;;;18.08;;
70148;SDS011;57514;52.164;5.282;2022-12-18T04:05:34;34.78;;;13.48;;
70148;SDS011;57514;52.164;5.282;2022-12-18T04:08:06;37.95;;;15.73;;
70148;SDS011;57514;52.164;5.282;2022-12-18T04:10:37;37.88;;;15.40;;
70148;SDS011;57514;52.164;5.282;2022-12-18T04:13:04;39.97;;;16.25;;
70148;SDS011;57514;52.164;5.282;2022-12-18T04:15:33;40.67;;;17.02;;
70148;SDS011;57514;52.164;5.282;2022-12-18T04:20:37;27.30;;;12.77;;
70148;SDS011;57514;52.164;5.282;2022-12-18T04:23:04;26.58;;;11.50;;
70148;SDS011;57514;52.164;5.282;2022-12-18T04:25:31;26.10;;;12.57;;
70148;SDS011;57514;52.164;5.282;2022-12-18T04:28:09;28.83;;;12.00;;
70148;SDS011;57514;52.164;5.282;2022-12-18T04:30:37;34.92;;;13.75;;
70148;SDS011;57514;52.164;5.282;2022-12-18T04:33:09;31.85;;;13.35;;
70148;SDS011;57514;52.164;5.282;2022-12-18T04:35:37;33.53;;;13.93;;
70148;SDS011;57514;52.164;5.282;2022-12-18T04:38:05;29.65;;;13.20;;
70148;SDS011;57514;52.164;5.282;2022-12-18T04:40:32;31.05;;;12.02;;
70148;SDS011;57514;52.164;5.282;2022-12-18T04:43:01;33.42;;;13.77;;
70148;SDS011;57514;52.164;5.282;2022-12-18T04:45:32;23.30;;;10.70;;
70148;SDS011;57514;52.164;5.282;2022-12-18T04:48:00;30.02;;;13.68;;
70148;SDS011;57514;52.164;5.282;2022-12-18T04:50:27;32.42;;;14.32;;
70148;SDS011;57514;52.164;5.282;2022-12-18T04:52:54;31.67;;;13.80;;
70148;SDS011;57514;52.164;5.282;2022-12-18T04:55:22;32.25;;;12.55;;
70148;SDS011;57514;52.164;5.282;2022-12-18T04:57:50;29.25;;;11.43;;
70148;SDS011;57514;52.164;5.282;2022-12-18T05:00:18;32.63;;;13.95;;
70148;SDS011;57514;52.164;5.282;2022-12-18T05:02:45;27.85;;;11.93;;
70148;SDS011;57514;52.164;5.282;2022-12-18T05:05:14;30.35;;;12.52;;
70148;SDS011;57514;52.164;5.282;2022-12-18T05:07:41;29.13;;;11.52;;
70148;SDS011;57514;52.164;5.282;2022-12-18T05:10:08;33.53;;;13.45;;
70148;SDS011;57514;52.164;5.282;2022-12-18T05:12:36;34.85;;;14.18;;
70148;SDS011;57514;52.164;5.282;2022-12-18T05:15:23;18.00;;;9.32;;
70148;SDS011;57514;52.164;5.282;2022-12-18T05:17:51;30.52;;;12.65;;
70148;SDS011;57514;52.164;5.282;2022-12-18T05:20:18;28.63;;;12.80;;
70148;SDS011;57514;52.164;5.282;2022-12-18T05:22:46;25.50;;;12.90;;
70148;SDS011;57514;52.164;5.282;2022-12-18T05:25:13;30.73;;;12.07;;
70148;SDS011;57514;52.164;5.282;2022-12-18T05:27:40;27.35;;;11.15;;
70148;SDS011;57514;52.164;5.282;2022-12-18T05:30:08;25.58;;;10.63;;
70148;SDS011;57514;52.164;5.282;2022-12-18T05:32:35;13.45;;;7.43;;
70148;SDS011;57514;52.164;5.282;2022-12-18T05:35:02;30.90;;;11.20;;
70148;SDS011;57514;52.164;5.282;2022-12-18T05:37:30;25.52;;;11.93;;
70148;SDS011;57514;52.164;5.282;2022-12-18T05:39:57;29.80;;;12.30;;
70148;SDS011;57514;52.164;5.282;2022-12-18T05:42:24;29.80;;;13.38;;
70148;SDS011;57514;52.164;5.282;2022-12-18T05:44:51;28.35;;;12.75;;
70148;SDS011;57514;52.164;5.282;2022-12-18T05:47:18;17.25;;;9.35;;
70148;SDS011;57514;52.164;5.282;2022-12-18T05:49:45;28.00;;;12.02;;
70148;SDS011;57514;52.164;5.282;2022-12-18T05:52:13;27.67;;;11.73;;
70148;SDS011;57514;52.164;5.282;2022-12-18T05:54:40;22.50;;;11.05;;
70148;SDS011;57514;52.164;5.282;2022-12-18T05:57:07;24.75;;;11.77;;
70148;SDS011;57514;52.164;5.282;2022-12-18T05:59:35;23.75;;;10.57;;
70148;SDS011;57514;52.164;5.282;2022-12-18T06:02:02;26.70;;;10.02;;
70148;SDS011;57514;52.164;5.282;2022-12-18T06:04:29;22.83;;;10.52;;
70148;SDS011;57514;52.164;5.282;2022-12-18T06:06:56;22.30;;;11.20;;
70148;SDS011;57514;52.164;5.282;2022-12-18T06:09:24;24.00;;;11.20;;
70148;SDS011;57514;52.164;5.282;2022-12-18T06:11:51;25.10;;;8.50;;
70148;SDS011;57514;52.164;5.282;2022-12-18T06:14:18;20.00;;;10.25;;
70148;SDS011;57514;52.164;5.282;2022-12-18T06:16:46;22.35;;;9.85;;
70148;SDS011;57514;52.164;5.282;2022-12-18T06:19:16;19.02;;;9.77;;
70148;SDS011;57514;52.164;5.282;2022-12-18T06:21:43;22.75;;;10.70;;
70148;SDS011;57514;52.164;5.282;2022-12-18T06:24:10;22.48;;;10.25;;
70148;SDS011;57514;52.164;5.282;2022-12-18T06:26:38;24.23;;;10.05;;
70148;SDS011;57514;52.164;5.282;2022-12-18T06:29:05;29.30;;;12.35;;
70148;SDS011;57514;52.164;5.282;2022-12-18T06:31:32;31.30;;;11.98;;
70148;SDS011;57514;52.164;5.282;2022-12-18T06:34:02;30.45;;;11.50;;
70148;SDS011;57514;52.164;5.282;2022-12-18T06:36:29;28.88;;;10.93;;
70148;SDS011;57514;52.164;5.282;2022-12-18T06:38:57;23.92;;;9.60;;
70148;SDS011;57514;52.164;5.282;2022-12-18T06:41:24;23.38;;;11.27;;
70148;SDS011;57514;52.164;5.282;2022-12-18T06:43:52;22.35;;;8.77;;
70148;SDS011;57514;52.164;5.282;2022-12-18T06:46:24;25.98;;;10.07;;
70148;SDS011;57514;52.164;5.282;2022-12-18T06:48:52;22.30;;;9.45;;
70148;SDS011;57514;52.164;5.282;2022-12-18T06:51:20;23.35;;;11.40;;
70148;SDS011;57514;52.164;5.282;2022-12-18T06:53:47;21.98;;;10.07;;
70148;SDS011;57514;52.164;5.282;2022-12-18T06:56:14;24.38;;;10.35;;
70148;SDS011;57514;52.164;5.282;2022-12-18T06:58:42;21.02;;;9.85;;
70148;SDS011;57514;52.164;5.282;2022-12-18T07:01:10;26.00;;;10.70;;
70148;SDS011;57514;52.164;5.282;2022-12-18T07:03:40;18.70;;;8.35;;
70148;SDS011;57514;52.164;5.282;2022-12-18T07:06:17;16.80;;;8.02;;
70148;SDS011;57514;52.164;5.282;2022-12-18T07:08:45;13.45;;;7.70;;
70148;SDS011;57514;52.164;5.282;2022-12-18T07:11:12;21.95;;;11.82;;
70148;SDS011;57514;52.164;5.282;2022-12-18T07:13:39;24.75;;;9.80;;
70148;SDS011;57514;52.164;5.282;2022-12-18T07:16:08;25.75;;;10.80;;
70148;SDS011;57514;52.164;5.282;2022-12-18T07:18:43;17.95;;;9.23;;
70148;SDS011;57514;52.164;5.282;2022-12-18T07:21:14;25.48;;;10.68;;
70148;SDS011;57514;52.164;5.282;2022-12-18T07:23:42;20.83;;;9.43;;
70148;SDS011;57514;52.164;5.282;2022-12-18T07:26:13;22.92;;;11.65;;
70148;SDS011;57514;52.164;5.282;2022-12-18T07:28:41;9.93;;;5.65;;
70148;SDS011;57514;52.164;5.282;2022-12-18T07:31:12;20.63;;;9.80;;
70148;SDS011;57514;52.164;5.282;2022-12-18T07:33:40;25.67;;;10.52;;
70148;SDS011;57514;52.164;5.282;2022-12-18T07:36:08;21.58;;;9.93;;
70148;SDS011;57514;52.164;5.282;2022-12-18T07:38:36;17.42;;;8.52;;
70148;SDS011;57514;52.164;5.282;2022-12-18T07:41:05;21.95;;;11.00;;
70148;SDS011;57514;52.164;5.282;2022-12-18T07:43:32;18.63;;;8.23;;
70148;SDS011;57514;52.164;5.282;2022-12-18T07:46:00;16.40;;;8.18;;
70148;SDS011;57514;52.164;5.282;2022-12-18T07:48:28;17.85;;;9.35;;
70148;SDS011;57514;52.164;5.282;2022-12-18T07:51:00;14.55;;;7.82;;
70148;SDS011;57514;52.164;5.282;2022-12-18T07:53:28;18.65;;;10.23;;
70148;SDS011;57514;52.164;5.282;2022-12-18T07:55:56;18.52;;;9.13;;
70148;SDS011;57514;52.164;5.282;2022-12-18T07:58:44;26.85;;;11.05;;
70148;SDS011;57514;52.164;5.282;2022-12-18T08:01:13;20.48;;;8.82;;
70148;SDS011;57514;52.164;5.282;2022-12-18T08:03:40;18.83;;;8.65;;
70148;SDS011;57514;52.164;5.282;2022-12-18T08:06:09;18.23;;;9.05;;
70148;SDS011;57514;52.164;5.282;2022-12-18T08:08:36;20.63;;;8.55;;
70148;SDS011;57514;52.164;5.282;2022-12-18T08:11:03;11.77;;;6.25;;
70148;SDS011;57514;52.164;5.282;2022-12-18T08:13:31;17.17;;;8.73;;
70148;SDS011;57514;52.164;5.282;2022-12-18T08:15:59;24.25;;;10.90;;
70148;SDS011;57514;52.164;5.282;2022-12-18T08:18:27;20.10;;;7.57;;
70148;SDS011;57514;52.164;5.282;2022-12-18T08:20:55;17.85;;;8.05;;
70148;SDS011;57514;52.164;5.282;2022-12-18T08:23:22;19.00;;;9.90;;
70148;SDS011;57514;52.164;5.282;2022-12-18T08:25:54;17.38;;;7.63;;
70148;SDS011;57514;52.164;5.282;2022-12-18T08:28:21;9.93;;;5.43;;
70148;SDS011;57514;52.164;5.282;2022-12-18T08:30:51;16.70;;;9.25;;
70148;SDS011;57514;52.164;5.282;2022-12-18T08:33:18;21.70;;;10.13;;
70148;SDS011;57514;52.164;5.282;2022-12-18T08:35:45;19.17;;;10.57;;
70148;SDS011;57514;52.164;5.282;2022-12-18T08:38:18;20.38;;;8.55;;
70148;SDS011;57514;52.164;5.282;2022-12-18T08:40:46;18.05;;;8.02;;
70148;SDS011;57514;52.164;5.282;2022-12-18T08:43:13;19.45;;;10.07;;
70148;SDS011;57514;52.164;5.282;2022-12-18T08:45:59;24.17;;;11.32;;
70148;SDS011;57514;52.164;5.282;2022-12-18T08:48:26;17.95;;;9.73;;
70148;SDS011;57514;52.164;5.282;2022-12-18T08:50:57;21.90;;;11.02;;
70148;SDS011;57514;52.164;5.282;2022-12-18T08:53:24;22.98;;;9.90;;
70148;SDS011;57514;52.164;5.282;2022-12-18T08:55:57;18.73;;;8.80;;
70148;SDS011;57514;52.164;5.282;2022-12-18T08:58:25;18.40;;;10.25;;
70148;SDS011;57514;52.164;5.282;2022-12-18T09:00:52;21.58;;;10.57;;
70148;SDS011;57514;52.164;5.282;2022-12-18T09:03:20;19.10;;;9.70;;
70148;SDS011;57514;52.164;5.282;2022-12-18T09:05:48;20.13;;;10.93;;
70148;SDS011;57514;52.164;5.282;2022-12-18T09:08:16;24.45;;;11.60;;
70148;SDS011;57514;52.164;5.282;2022-12-18T09:10:44;20.67;;;10.90;;
70148;SDS011;57514;52.164;5.282;2022-12-18T09:13:11;23.60;;;11.00;;
70148;SDS011;57514;52.164;5.282;2022-12-18T09:15:42;17.95;;;8.13;;
70148;SDS011;57514;52.164;5.282;2022-12-18T09:18:11;21.08;;;10.35;;
70148;SDS011;57514;52.164;5.282;2022-12-18T09:20:39;20.45;;;10.20;;
70148;SDS011;57514;52.164;5.282;2022-12-18T09:23:06;19.45;;;10.55;;
70148;SDS011;57514;52.164;5.282;2022-12-18T09:25:34;16.25;;;8.52;;
70148;SDS011;57514;52.164;5.282;2022-12-18T09:28:03;17.98;;;9.93;;
70148;SDS011;57514;52.164;5.282;2022-12-18T09:30:31;23.52;;;11.88;;
70148;SDS011;57514;52.164;5.282;2022-12-18T09:33:01;22.88;;;10.52;;
70148;SDS011;57514;52.164;5.282;2022-12-18T09:35:28;20.58;;;10.35;;
70148;SDS011;57514;52.164;5.282;2022-12-18T09:37:56;12.13;;;6.43;;
70148;SDS011;57514;52.164;5.282;2022-12-18T09:40:24;21.67;;;10.85;;
70148;SDS011;57514;52.164;5.282;2022-12-18T09:42:53;14.65;;;8.02;;
70148;SDS011;57514;52.164;5.282;2022-12-18T09:45:22;22.88;;;11.05;;
70148;SDS011;57514;52.164;5.282;2022-12-18T09:47:50;19.77;;;10.50;;
70148;SDS011;57514;52.164;5.282;2022-12-18T09:50:32;20.95;;;10.70;;
70148;SDS011;57514;52.164;5.282;2022-12-18T09:53:20;21.40;;;10.10;;
70148;SDS011;57514;52.164;5.282;2022-12-18T09:55:49;19.17;;;8.65;;
70148;SDS011;57514;52.164;5.282;2022-12-18T10:01:38;20.38;;;10.32;;
70148;SDS011;57514;52.164;5.282;2022-12-18T10:04:08;19.35;;;10.40;;
70148;SDS011;57514;52.164;5.282;2022-12-18T10:06:38;17.85;;;8.93;;
70148;SDS011;57514;52.164;5.282;2022-12-18T10:09:11;22.45;;;10.52;;
70148;SDS011;57514;52.164;5.282;2022-12-18T10:16:42;25.02;;;11.60;;
70148;SDS011;57514;52.164;5.282;2022-12-18T10:19:17;21.70;;;8.82;;
70148;SDS011;57514;52.164;5.282;2022-12-18T10:24:35;18.27;;;9.13;;
70148;SDS011;57514;52.164;5.282;2022-12-18T10:27:14;16.00;;;8.55;;
70148;SDS011;57514;52.164;5.282;2022-12-18T10:29:42;19.13;;;9.70;;
70148;SDS011;57514;52.164;5.282;2022-12-18T10:32:17;19.25;;;8.98;;
70148;SDS011;57514;52.164;5.282;2022-12-18T10:34:46;23.77;;;11.45;;
70148;SDS011;57514;52.164;5.282;2022-12-18T10:37:17;20.75;;;9.95;;
70148;SDS011;57514;52.164;5.282;2022-12-18T10:39:46;9.40;;;5.32;;
70148;SDS011;57514;52.164;5.282;2022-12-18T10:42:17;20.85;;;9.77;;
70148;SDS011;57514;52.164;5.282;2022-12-18T10:44:45;22.75;;;8.93;;
70148;SDS011;57514;52.164;5.282;2022-12-18T10:47:15;19.35;;;10.50;;
70148;SDS011;57514;52.164;5.282;2022-12-18T10:49:49;21.65;;;10.68;;
70148;SDS011;57514;52.164;5.282;2022-12-18T10:52:18;18.38;;;9.45;;
70148;SDS011;57514;52.164;5.282;2022-12-18T10:54:48;20.30;;;9.10;;
70148;SDS011;57514;52.164;5.282;2022-12-18T10:57:17;17.88;;;8.30;;
70148;SDS011;57514;52.164;5.282;2022-12-18T10:59:52;24.05;;;10.43;;
70148;SDS011;57514;52.164;5.282;2022-12-18T11:02:28;21.65;;;11.00;;
70148;SDS011;57514;52.164;5.282;2022-12-18T11:05:01;17.33;;;8.30;;
70148;SDS011;57514;52.164;5.282;2022-12-18T11:07:46;24.45;;;11.25;;
70148;SDS011;57514;52.164;5.282;2022-12-18T11:10:21;18.38;;;9.32;;
70148;SDS011;57514;52.164;5.282;2022-12-18T11:12:48;17.98;;;10.25;;
70148;SDS011;57514;52.164;5.282;2022-12-18T11:15:29;18.23;;;9.95;;
70148;SDS011;57514;52.164;5.282;2022-12-18T11:17:57;20.05;;;8.98;;
70148;SDS011;57514;52.164;5.282;2022-12-18T11:20:30;19.15;;;8.50;;
70148;SDS011;57514;52.164;5.282;2022-12-18T11:23:03;18.75;;;9.15;;
70148;SDS011;57514;52.164;5.282;2022-12-18T11:25:31;18.75;;;8.25;;
70148;SDS011;57514;52.164;5.282;2022-12-18T11:28:01;17.98;;;8.73;;
70148;SDS011;57514;52.164;5.282;2022-12-18T11:30:33;16.88;;;7.90;;
70148;SDS011;57514;52.164;5.282;2022-12-18T11:33:12;21.60;;;9.93;;
70148;SDS011;57514;52.164;5.282;2022-12-18T11:40:47;16.30;;;8.40;;
70148;SDS011;57514;52.164;5.282;2022-12-18T11:43:17;18.33;;;8.70;;
70148;SDS011;57514;52.164;5.282;2022-12-18T11:45:49;18.35;;;9.07;;
70148;SDS011;57514;52.164;5.282;2022-12-18T11:48:22;21.65;;;11.18;;
70148;SDS011;57514;52.164;5.282;2022-12-18T11:50:52;19.45;;;9.40;;
70148;SDS011;57514;52.164;5.282;2022-12-18T11:53:22;18.98;;;10.35;;
70148;SDS011;57514;52.164;5.282;2022-12-18T11:58:42;20.45;;;9.13;;
70148;SDS011;57514;52.164;5.282;2022-12-18T12:06:23;16.23;;;7.22;;
70148;SDS011;57514;52.164;5.282;2022-12-18T12:11:30;13.95;;;7.35;;
70148;SDS011;57514;52.164;5.282;2022-12-18T12:24:39;19.33;;;10.15;;
70148;SDS011;57514;52.164;5.282;2022-12-18T12:32:28;19.42;;;10.25;;
70148;SDS011;57514;52.164;5.282;2022-12-18T12:35:12;17.40;;;8.90;;
70148;SDS011;57514;52.164;5.282;2022-12-18T12:37:46;20.90;;;9.57;;
70148;SDS011;57514;52.164;5.282;2022-12-18T12:40:20;18.30;;;8.55;;
70148;SDS011;57514;52.164;5.282;2022-12-18T12:43:28;22.38;;;11.25;;
70148;SDS011;57514;52.164;5.282;2022-12-18T12:48:38;20.98;;;10.20;;
70148;SDS011;57514;52.164;5.282;2022-12-18T12:51:10;13.05;;;6.03;;
70148;SDS011;57514;52.164;5.282;2022-12-18T12:53:39;18.13;;;8.80;;
70148;SDS011;57514;52.164;5.282;2022-12-18T12:56:08;20.20;;;9.48;;
70148;SDS011;57514;52.164;5.282;2022-12-18T13:01:26;18.73;;;8.55;;
70148;SDS011;57514;52.164;5.282;2022-12-18T13:06:50;21.13;;;10.88;;
70148;SDS011;57514;52.164;5.282;2022-12-18T13:09:21;19.00;;;9.48;;
70148;SDS011;57514;52.164;5.282;2022-12-18T13:11:51;17.45;;;8.77;;
70148;SDS011;57514;52.164;5.282;2022-12-18T13:14:38;18.92;;;9.65;;
70148;SDS011;57514;52.164;5.282;2022-12-18T13:25:04;20.60;;;8.68;;
70148;SDS011;57514;52.164;5.282;2022-12-18T13:27:59;18.35;;;10.48;;
70148;SDS011;57514;52.164;5.282;2022-12-18T13:38:23;15.73;;;7.63;;
70148;SDS011;57514;52.164;5.282;2022-12-18T13:40:53;17.80;;;8.15;;
70148;SDS011;57514;52.164;5.282;2022-12-18T13:48:27;23.67;;;12.05;;
70148;SDS011;57514;52.164;5.282;2022-12-18T13:53:30;21.80;;;11.27;;
70148;SDS011;57514;52.164;5.282;2022-12-18T13:58:27;17.70;;;8.40;;
70148;SDS011;57514;52.164;5.282;2022-12-18T14:00:54;20.67;;;9.90;;
70148;SDS011;57514;52.164;5.282;2022-12-18T14:03:22;19.63;;;9.07;;
70148;SDS011;57514;52.164;5.282;2022-12-18T14:05:53;22.40;;;10.50;;
70148;SDS011;57514;52.164;5.282;2022-12-18T14:08:21;20.83;;;10.57;;
70148;SDS011;57514;52.164;5.282;2022-12-18T14:10:51;17.05;;;8.75;;
70148;SDS011;57514;52.164;5.282;2022-12-18T14:15:56;23.55;;;11.32;;
70148;SDS011;57514;52.164;5.282;2022-12-18T14:18:50;17.23;;;8.48;;
70148;SDS011;57514;52.164;5.282;2022-12-18T14:21:26;17.25;;;8.88;;
70148;SDS011;57514;52.164;5.282;2022-12-18T14:26:54;24.55;;;12.40;;
70148;SDS011;57514;52.164;5.282;2022-12-18T14:29:28;21.55;;;9.93;;
70148;SDS011;57514;52.164;5.282;2022-12-18T14:34:48;19.95;;;10.00;;
70148;SDS011;57514;52.164;5.282;2022-12-18T14:37:16;18.30;;;8.93;;
70148;SDS011;57514;52.164;5.282;2022-12-18T14:39:54;16.65;;;8.73;;
70148;SDS011;57514;52.164;5.282;2022-12-18T14:42:23;19.88;;;10.02;;
70148;SDS011;57514;52.164;5.282;2022-12-18T14:47:42;22.25;;;10.77;;
70148;SDS011;57514;52.164;5.282;2022-12-18T14:50:13;16.52;;;7.97;;
70148;SDS011;57514;52.164;5.282;2022-12-18T14:52:44;24.27;;;11.30;;
70148;SDS011;57514;52.164;5.282;2022-12-18T14:55:20;46.08;;;18.77;;
70148;SDS011;57514;52.164;5.282;2022-12-18T14:58:27;62.70;;;18.73;;
70148;SDS011;57514;52.164;5.282;2022-12-18T15:00:55;43.22;;;15.60;;
70148;SDS011;57514;52.164;5.282;2022-12-18T15:03:22;25.92;;;10.98;;
70148;SDS011;57514;52.164;5.282;2022-12-18T15:05:50;20.92;;;9.88;;
70148;SDS011;57514;52.164;5.282;2022-12-18T15:08:39;22.65;;;10.65;;
70148;SDS011;57514;52.164;5.282;2022-12-18T15:11:23;19.80;;;9.73;;
70148;SDS011;57514;52.164;5.282;2022-12-18T15:13:52;15.40;;;8.00;;
70148;SDS011;57514;52.164;5.282;2022-12-18T15:16:19;13.50;;;6.18;;
70148;SDS011;57514;52.164;5.282;2022-12-18T15:18:46;21.15;;;10.02;;
70148;SDS011;57514;52.164;5.282;2022-12-18T15:21:16;19.30;;;8.43;;
70148;SDS011;57514;52.164;5.282;2022-12-18T15:26:12;16.63;;;8.07;;
70148;SDS011;57514;52.164;5.282;2022-12-18T15:28:50;20.10;;;10.02;;
70148;SDS011;57514;52.164;5.282;2022-12-18T15:31:30;22.38;;;9.52;;
70148;SDS011;57514;52.164;5.282;2022-12-18T15:34:41;19.85;;;9.25;;
70148;SDS011;57514;52.164;5.282;2022-12-18T15:36:49;18.73;;;8.82;;
70148;SDS011;57514;52.164;5.282;2022-12-18T15:39:17;21.17;;;10.35;;
70148;SDS011;57514;52.164;5.282;2022-12-18T15:41:44;14.30;;;5.95;;
70148;SDS011;57514;52.164;5.282;2022-12-18T15:44:30;15.25;;;8.52;;
70148;SDS011;57514;52.164;5.282;2022-12-18T15:46:57;20.38;;;10.18;;
70148;SDS011;57514;52.164;5.282;2022-12-18T15:49:25;21.77;;;10.68;;
70148;SDS011;57514;52.164;5.282;2022-12-18T15:51:53;22.58;;;10.32;;
70148;SDS011;57514;52.164;5.282;2022-12-18T15:54:21;22.13;;;10.93;;
70148;SDS011;57514;52.164;5.282;2022-12-18T15:57:11;21.80;;;11.15;;
70148;SDS011;57514;52.164;5.282;2022-12-18T15:59:51;14.35;;;6.63;;
70148;SDS011;57514;52.164;5.282;2022-12-18T16:02:19;23.27;;;9.32;;
70148;SDS011;57514;52.164;5.282;2022-12-18T16:04:49;22.08;;;10.85;;
70148;SDS011;57514;52.164;5.282;2022-12-18T16:07:17;21.55;;;9.57;;
70148;SDS011;57514;52.164;5.282;2022-12-18T16:09:50;21.00;;;11.20;;
70148;SDS011;57514;52.164;5.282;2022-12-18T16:12:19;14.65;;;7.20;;
70148;SDS011;57514;52.164;5.282;2022-12-18T16:14:47;19.75;;;10.30;;
70148;SDS011;57514;52.164;5.282;2022-12-18T16:17:15;22.75;;;9.75;;
70148;SDS011;57514;52.164;5.282;2022-12-18T16:19:42;18.80;;;8.55;;
70148;SDS011;57514;52.164;5.282;2022-12-18T16:22:43;22.30;;;10.73;;
70148;SDS011;57514;52.164;5.282;2022-12-18T16:25:03;20.33;;;9.93;;
70148;SDS011;57514;52.164;5.282;2022-12-18T16:27:31;20.63;;;10.38;;
70148;SDS011;57514;52.164;5.282;2022-12-18T16:29:58;18.92;;;10.45;;
70148;SDS011;57514;52.164;5.282;2022-12-18T16:32:25;19.88;;;9.52;;
70148;SDS011;57514;52.164;5.282;2022-12-18T16:34:52;21.23;;;10.43;;
70148;SDS011;57514;52.164;5.282;2022-12-18T16:37:20;21.10;;;11.02;;
70148;SDS011;57514;52.164;5.282;2022-12-18T16:39:47;17.23;;;9.43;;